Time;durP1;ratioP1;P1;durP2;ratioP2;P2;SDS_P1;SDS_P2;PMS_P1;PMS_P2;Temp;Humidity;BMP_temperature;BMP_pressure;BME280_temperature;BME280_humidity;BME280_pressure;Samples;Min_cycle;Max_cycle;Signal;HPM_P1;HPM_P2
2021/04/23 00:01:32;;;;;;;1.75;0.93;;;24.90;35.60;;;;;;5076081;28;20040;-54
2021/04/23 00:04:00;;;;;;;3.03;1.17;;;24.90;35.70;;;;;;5082841;28;20086;-58
2021/04/23 00:06:36;;;;;;;2.88;1.10;;;24.90;35.70;;;;;;5081994;28;20024;-55
2021/04/23 00:09:13;;;;;;;2.60;1.40;;;24.90;35.70;;;;;;5081722;28;20028;-56
2021/04/23 00:11:48;;;;;;;2.13;1.00;;;24.80;35.60;;;;;;5082716;28;20068;-55
2021/04/23 00:14:17;;;;;;;2.42;1.02;;;24.80;35.60;;;;;;5079337;28;20028;-56
2021/04/23 00:16:44;;;;;;;1.70;1.00;;;24.80;35.60;;;;;;5081577;28;20103;-59
2021/04/23 00:19:12;;;;;;;1.95;1.10;;;24.80;35.70;;;;;;5081870;28;20040;-58
2021/04/23 00:21:39;;;;;;;2.05;1.00;;;24.80;35.70;;;;;;5082608;28;20027;-56
2021/04/23 00:24:05;;;;;;;1.95;1.10;;;24.80;35.70;;;;;;5079444;28;20032;-57
2021/04/23 00:26:31;;;;;;;1.80;1.10;;;24.80;35.70;;;;;;5082920;28;20024;-59
2021/04/23 00:28:56;;;;;;;1.63;0.93;;;24.80;35.70;;;;;;5077078;28;20028;-56
2021/04/23 00:31:22;;;;;;;1.90;1.00;;;24.80;35.70;;;;;;5078623;28;20060;-60
2021/04/23 00:33:48;;;;;;;1.50;0.90;;;24.70;35.70;;;;;;5082037;28;20394;-54
2021/04/23 00:36:13;;;;;;;3.08;1.05;;;24.70;35.70;;;;;;5070666;28;20531;-55
2021/04/23 00:38:39;;;;;;;1.98;1.00;;;24.70;35.70;;;;;;5080440;28;20031;-58
2021/04/23 00:41:11;;;;;;;1.75;0.98;;;24.70;35.70;;;;;;5081509;28;20036;-59
2021/04/23 00:43:40;;;;;;;1.70;1.00;;;24.70;35.70;;;;;;5079367;28;20024;-59
2021/04/23 00:46:06;;;;;;;1.80;1.02;;;24.70;35.80;;;;;;5081495;28;20039;-56
2021/04/23 00:48:34;;;;;;;1.95;1.13;;;24.70;35.80;;;;;;5079482;28;20116;-56
2021/04/23 00:51:08;;;;;;;2.40;0.98;;;24.60;35.70;;;;;;5079406;28;20035;-58
2021/04/23 00:53:36;;;;;;;1.80;1.10;;;24.60;35.70;;;;;;5081384;28;20051;-54
2021/04/23 00:56:06;;;;;;;2.20;0.90;;;24.60;35.70;;;;;;5080312;28;20026;-58
2021/04/23 00:58:34;;;;;;;1.52;0.90;;;24.60;35.70;;;;;;5080003;28;20038;-59
2021/04/23 01:01:07;;;;;;;2.10;1.10;;;24.60;35.70;;;;;;5073453;28;20517;-58
2021/04/23 01:03:34;;;;;;;1.77;0.90;;;24.60;35.80;;;;;;5080563;28;20028;-58
2021/04/23 01:06:01;;;;;;;1.83;1.05;;;24.60;35.80;;;;;;5080423;28;20258;-56
2021/04/23 01:08:27;;;;;;;1.67;0.98;;;24.60;35.80;;;;;;5080689;28;20451;-57
2021/04/23 01:10:58;;;;;;;1.58;0.90;;;24.50;35.80;;;;;;5081777;28;20046;-58
2021/04/23 01:13:30;;;;;;;1.58;0.90;;;24.50;35.80;;;;;;5078561;28;20165;-60
2021/04/23 01:16:00;;;;;;;1.23;0.90;;;24.50;35.80;;;;;;5079904;28;20545;-59
2021/04/23 01:18:26;;;;;;;1.33;0.80;;;24.50;35.80;;;;;;5079992;28;20034;-59
2021/04/23 01:21:06;;;;;;;2.00;0.98;;;24.50;35.80;;;;;;5078215;28;20431;-57
2021/04/23 01:23:33;;;;;;;1.27;0.80;;;24.40;36.30;;;;;;5079062;28;20130;-57
2021/04/23 01:25:59;;;;;;;2.10;0.90;;;24.50;35.80;;;;;;5070694;28;20073;-59
2021/04/23 01:28:25;;;;;;;1.67;1.02;;;24.40;35.80;;;;;;5080829;28;20077;-57
2021/04/23 01:30:51;;;;;;;2.38;1.10;;;24.40;35.80;;;;;;5082006;28;20040;-56
2021/04/23 01:33:17;;;;;;;1.90;1.00;;;24.40;35.80;;;;;;5081800;28;20034;-59
2021/04/23 01:35:43;;;;;;;1.35;0.90;;;24.40;35.80;;;;;;5082000;28;20028;-60
2021/04/23 01:38:10;;;;;;;2.30;1.10;;;24.40;35.80;;;;;;5078897;28;20089;-59
2021/04/23 01:40:36;;;;;;;1.55;0.80;;;24.40;35.80;;;;;;5081023;28;20359;-55
2021/04/23 01:43:02;;;;;;;1.15;0.77;;;24.40;35.80;;;;;;5079815;28;20109;-56
2021/04/23 01:45:28;;;;;;;1.75;1.00;;;24.30;35.80;;;;;;5079467;28;20917;-59
2021/04/23 01:47:54;;;;;;;1.80;0.90;;;24.40;35.90;;;;;;5081346;28;20190;-53
2021/04/23 01:50:21;;;;;;;1.20;0.80;;;24.30;35.80;;;;;;5083489;28;20070;-58
2021/04/23 01:52:49;;;;;;;1.52;0.82;;;24.30;35.80;;;;;;5081362;28;20037;-55
2021/04/23 01:55:18;;;;;;;1.60;0.90;;;24.30;35.80;;;;;;5084276;28;20335;-58
2021/04/23 01:57:44;;;;;;;3.38;1.00;;;24.30;35.80;;;;;;5077610;28;20301;-57
2021/04/23 02:00:29;;;;;;;1.52;1.05;;;24.30;35.90;;;;;;5083032;28;20055;-58
2021/04/23 02:02:57;;;;;;;1.60;0.95;;;24.30;35.90;;;;;;5076789;28;20036;-56
2021/04/23 02:05:23;;;;;;;0.90;0.80;;;24.30;35.90;;;;;;5086267;28;20051;-56
2021/04/23 02:07:49;;;;;;;1.48;0.90;;;24.20;35.80;;;;;;5084406;28;20039;-55
2021/04/23 02:10:18;;;;;;;1.02;0.80;;;24.30;35.80;;;;;;5079433;28;20055;-55
2021/04/23 02:12:44;;;;;;;1.58;0.90;;;24.30;35.90;;;;;;5085289;28;20075;-57
2021/04/23 02:15:13;;;;;;;1.45;0.95;;;24.20;35.80;;;;;;5081879;28;20102;-56
2021/04/23 02:17:40;;;;;;;1.67;0.98;;;24.20;35.80;;;;;;5070274;28;20036;-57
2021/04/23 02:20:10;;;;;;;1.67;0.93;;;24.20;35.80;;;;;;5082224;28;20036;-55
2021/04/23 02:22:36;;;;;;;1.83;0.90;;;24.20;35.80;;;;;;5085371;28;20043;-57
2021/04/23 02:25:04;;;;;;;1.70;0.90;;;24.20;35.80;;;;;;5084042;28;20032;-57
2021/04/23 02:27:30;;;;;;;1.77;1.00;;;24.20;35.80;;;;;;5084785;28;20118;-56
2021/04/23 02:29:55;;;;;;;1.98;1.00;;;24.20;35.80;;;;;;5066970;28;20115;-50
2021/04/23 02:32:21;;;;;;;1.45;0.80;;;24.20;35.90;;;;;;5082291;28;20081;-57
2021/04/23 02:34:47;;;;;;;1.40;0.90;;;24.20;35.80;;;;;;5082250;28;20035;-57
2021/04/23 02:37:13;;;;;;;1.70;0.95;;;24.10;35.80;;;;;;5075351;28;20064;-55
2021/04/23 02:39:38;;;;;;;1.52;0.90;;;24.20;35.90;;;;;;5084390;28;20115;-59
2021/04/23 02:42:04;;;;;;;1.77;1.00;;;24.20;35.90;;;;;;5081638;28;20024;-58
2021/04/23 02:44:30;;;;;;;1.25;0.80;;;24.10;35.80;;;;;;5084776;28;20056;-54
2021/04/23 02:46:56;;;;;;;1.10;0.80;;;24.10;35.80;;;;;;5080095;28;20042;-54
2021/04/23 02:49:21;;;;;;;1.42;1.00;;;24.10;35.80;;;;;;5080841;28;20034;-53
2021/04/23 02:51:48;;;;;;;1.23;0.90;;;24.10;35.80;;;;;;5083153;28;20063;-55
2021/04/23 02:54:15;;;;;;;1.10;0.80;;;24.10;35.90;;;;;;5082427;28;20147;-53
2021/04/23 02:56:41;;;;;;;1.10;0.82;;;24.10;35.90;;;;;;5083080;28;20030;-52
2021/04/23 02:59:07;;;;;;;1.77;0.85;;;24.10;35.90;;;;;;5083717;28;20035;-55
2021/04/23 03:01:39;;;;;;;1.52;1.02;;;24.10;35.90;;;;;;5082299;28;20830;-56
2021/04/23 03:04:05;;;;;;;1.38;0.90;;;24.10;35.90;;;;;;5083775;28;20455;-58
2021/04/23 03:06:32;;;;;;;1.20;0.90;;;24.10;35.80;;;;;;5084085;28;20028;-54
2021/04/23 03:08:58;;;;;;;1.45;0.90;;;24.10;35.80;;;;;;5083711;28;20405;-55
2021/04/23 03:11:25;;;;;;;1.30;0.80;;;24.10;35.80;;;;;;5084421;28;20028;-59
2021/04/23 03:13:53;;;;;;;1.40;0.90;;;24.00;35.80;;;;;;5077898;28;20458;-55
2021/04/23 03:16:19;;;;;;;1.58;0.82;;;24.00;35.80;;;;;;5084521;28;20099;-58
2021/04/23 03:18:47;;;;;;;1.52;0.73;;;24.00;35.80;;;;;;5082695;28;20028;-56
2021/04/23 03:21:16;;;;;;;1.05;0.75;;;24.00;35.80;;;;;;5081399;28;20036;-55
2021/04/23 03:23:43;;;;;;;1.57;1.00;;;24.00;35.80;;;;;;5082292;28;20024;-59
2021/04/23 03:26:10;;;;;;;1.48;0.80;;;24.00;35.80;;;;;;5080576;28;20274;-57
2021/04/23 03:28:37;;;;;;;1.42;0.80;;;23.90;35.80;;;;;;5082899;28;20209;-54
2021/04/23 03:31:04;;;;;;;1.38;0.90;;;24.00;35.80;;;;;;5081081;28;20351;-56
2021/04/23 03:33:30;;;;;;;1.33;0.80;;;24.00;35.80;;;;;;5063089;28;20031;-57
2021/04/23 03:35:57;;;;;;;1.50;0.90;;;23.90;35.70;;;;;;5080194;28;20106;-55
2021/04/23 03:38:26;;;;;;;1.52;1.00;;;23.90;35.80;;;;;;5081319;28;20132;-54
2021/04/23 03:40:53;;;;;;;1.60;0.95;;;23.90;35.70;;;;;;5072252;28;20159;-58
2021/04/23 03:43:19;;;;;;;1.80;1.00;;;23.90;35.80;;;;;;5079501;28;20032;-56
2021/04/23 03:45:45;;;;;;;1.45;0.80;;;23.90;35.70;;;;;;5083638;28;20036;-55
2021/04/23 03:48:11;;;;;;;1.25;0.80;;;23.90;35.80;;;;;;5082993;28;20081;-54
2021/04/23 03:50:39;;;;;;;1.50;0.90;;;23.90;35.80;;;;;;5079359;28;20040;-58
2021/04/23 03:53:07;;;;;;;1.35;0.90;;;23.90;35.80;;;;;;5081859;28;20031;-56
2021/04/23 03:55:37;;;;;;;1.40;0.80;;;23.90;35.80;;;;;;5079915;28;20036;-56
2021/04/23 03:58:04;;;;;;;1.80;0.80;;;23.90;35.80;;;;;;5079003;28;20485;-57
2021/04/23 04:00:36;;;;;;;1.35;0.90;;;23.90;35.80;;;;;;5081600;28;20068;-55
2021/04/23 04:03:01;;;;;;;1.33;0.80;;;23.90;35.70;;;;;;5082220;28;20490;-57
2021/04/23 04:05:27;;;;;;;1.27;0.90;;;23.80;35.70;;;;;;5084677;28;20026;-60
2021/04/23 04:07:53;;;;;;;1.63;0.90;;;23.90;35.80;;;;;;5083394;28;21718;-59
2021/04/23 04:10:18;;;;;;;2.22;1.08;;;23.80;35.70;;;;;;5080049;28;20096;-55
2021/04/23 04:12:45;;;;;;;2.08;1.10;;;23.80;35.70;;;;;;5083915;28;20039;-56
2021/04/23 04:15:11;;;;;;;1.40;0.98;;;23.80;35.70;;;;;;5069173;28;20024;-56
2021/04/23 04:17:36;;;;;;;1.23;0.85;;;23.80;35.70;;;;;;5074686;28;20047;-57
2021/04/23 04:20:05;;;;;;;1.73;0.80;;;23.80;35.70;;;;;;5080680;28;20032;-57
2021/04/23 04:22:31;;;;;;;1.40;0.95;;;23.70;36.20;;;;;;5082651;28;20038;-57
2021/04/23 04:24:57;;;;;;;1.35;0.77;;;23.80;35.70;;;;;;5078738;28;20028;-56
2021/04/23 04:27:23;;;;;;;1.38;0.90;;;23.70;35.70;;;;;;5082919;28;20568;-54
2021/04/23 04:29:48;;;;;;;1.58;0.85;;;23.70;35.70;;;;;;5081576;28;20080;-58
2021/04/23 04:32:15;;;;;;;2.22;0.98;;;23.70;35.70;;;;;;5068262;28;20151;-56
2021/04/23 04:34:41;;;;;;;2.47;1.50;;;23.70;35.70;;;;;;5076467;28;20119;-51
2021/04/23 04:37:06;;;;;;;1.70;0.98;;;23.70;35.80;;;;;;5082843;28;20516;-56
2021/04/23 04:39:32;;;;;;;2.03;0.90;;;23.70;35.70;;;;;;5082455;28;20031;-55
2021/04/23 04:41:58;;;;;;;1.63;0.90;;;23.70;35.70;;;;;;5082095;28;20479;-56
2021/04/23 04:44:23;;;;;;;1.67;0.80;;;23.70;35.80;;;;;;5082274;28;20039;-57
2021/04/23 04:46:49;;;;;;;2.25;0.90;;;23.70;35.80;;;;;;5082453;28;20190;-57
2021/04/23 04:49:14;;;;;;;2.13;1.00;;;23.70;35.80;;;;;;5081965;28;20357;-54
2021/04/23 04:51:40;;;;;;;2.13;1.10;;;23.70;35.80;;;;;;5082617;28;20115;-59
2021/04/23 04:54:06;;;;;;;1.42;0.82;;;23.70;35.80;;;;;;5081293;28;20028;-55
2021/04/23 04:56:32;;;;;;;1.67;0.90;;;23.70;35.80;;;;;;5083029;28;20031;-56
2021/04/23 04:58:57;;;;;;;1.35;0.80;;;23.60;35.80;;;;;;5081328;28;20176;-57
2021/04/23 05:01:23;;;;;;;2.00;0.90;;;23.70;35.80;;;;;;5078970;28;20419;-55
2021/04/23 05:03:49;;;;;;;1.42;0.80;;;23.60;35.80;;;;;;5077305;28;20039;-56
2021/04/23 05:06:14;;;;;;;1.67;1.00;;;23.60;35.80;;;;;;5082911;28;20486;-59
2021/04/23 05:08:41;;;;;;;1.38;0.90;;;23.60;35.90;;;;;;5072902;28;20034;-57
2021/04/23 05:11:06;;;;;;;1.65;1.00;;;23.60;35.90;;;;;;5073540;28;20047;-56
2021/04/23 05:13:33;;;;;;;2.30;1.10;;;23.60;35.90;;;;;;5081520;28;20239;-58
2021/04/23 05:15:58;;;;;;;1.75;1.00;;;23.60;36.00;;;;;;5079585;28;20282;-57
2021/04/23 05:18:24;;;;;;;1.80;1.10;;;23.60;36.00;;;;;;5080983;28;20032;-52
2021/04/23 05:20:50;;;;;;;2.33;1.00;;;23.60;36.00;;;;;;5079078;28;20074;-59
2021/04/23 05:23:16;;;;;;;2.47;1.27;;;23.60;36.00;;;;;;5079457;28;20032;-57
2021/04/23 05:25:41;;;;;;;2.15;1.02;;;23.60;36.00;;;;;;5080772;28;20074;-56
2021/04/23 05:28:07;;;;;;;2.05;0.90;;;23.60;36.10;;;;;;5082546;28;20035;-55
2021/04/23 05:30:35;;;;;;;1.95;1.00;;;23.60;36.20;;;;;;5081603;28;20046;-57
2021/04/23 05:33:02;;;;;;;2.10;0.90;;;23.60;36.20;;;;;;5082430;28;20036;-56
2021/04/23 05:35:29;;;;;;;2.63;1.00;;;23.60;36.20;;;;;;5081870;28;20040;-57
2021/04/23 05:37:56;;;;;;;2.92;1.02;;;23.50;36.30;;;;;;5082463;28;20024;-53
2021/04/23 05:40:45;;;;;;;4.10;1.20;;;23.60;36.30;;;;;;5080877;28;20485;-56
2021/04/23 05:43:13;;;;;;;3.05;1.33;;;23.60;36.40;;;;;;5081007;28;20062;-55
2021/04/23 05:45:40;;;;;;;1.83;0.95;;;23.60;36.30;;;;;;5079048;28;20150;-57
2021/04/23 05:48:09;;;;;;;2.40;1.30;;;23.60;36.30;;;;;;5075715;28;20034;-54
2021/04/23 05:50:37;;;;;;;1.75;0.90;;;23.60;36.30;;;;;;5075893;28;20032;-53
2021/04/23 05:53:04;;;;;;;3.72;1.30;;;23.50;36.30;;;;;;5074423;28;20028;-57
2021/04/23 05:55:30;;;;;;;2.88;1.25;;;23.60;36.30;;;;;;5073823;28;20051;-52
2021/04/23 05:57:58;;;;;;;2.38;1.20;;;23.60;36.30;;;;;;5079303;28;20043;-56
2021/04/23 06:00:26;;;;;;;2.15;1.05;;;23.50;36.30;;;;;;5061860;28;20042;-51
2021/04/23 06:02:54;;;;;;;3.20;1.50;;;23.60;36.40;;;;;;5070536;28;20101;-57
2021/04/23 06:05:21;;;;;;;1.60;1.00;;;23.50;36.30;;;;;;5081045;28;20282;-57
2021/04/23 06:07:46;;;;;;;2.22;1.20;;;23.60;36.40;;;;;;5080926;28;20779;-56
2021/04/23 06:10:16;;;;;;;1.70;1.00;;;23.50;36.30;;;;;;5080967;28;20168;-56
2021/04/23 06:12:42;;;;;;;2.10;1.00;;;23.50;36.30;;;;;;5070260;28;20039;-57
2021/04/23 06:15:09;;;;;;;1.52;1.00;;;23.50;36.30;;;;;;5079633;28;20036;-56
2021/04/23 06:17:35;;;;;;;1.73;1.00;;;23.60;36.40;;;;;;5079434;28;20024;-56
2021/04/23 06:20:03;;;;;;;4.47;1.00;;;23.50;36.40;;;;;;5080901;28;20455;-55
2021/04/23 06:22:29;;;;;;;1.95;0.98;;;23.50;36.40;;;;;;5081469;28;20024;-50
2021/04/23 06:24:54;;;;;;;2.28;0.98;;;23.50;36.50;;;;;;5077454;28;20419;-55
2021/04/23 06:27:20;;;;;;;2.10;0.90;;;23.50;36.50;;;;;;5076725;28;20103;-57
2021/04/23 06:29:47;;;;;;;2.00;1.10;;;23.50;36.50;;;;;;5068797;28;20033;-55
2021/04/23 06:32:13;;;;;;;2.45;1.00;;;23.50;36.50;;;;;;5072762;28;20054;-54
2021/04/23 06:34:38;;;;;;;3.33;1.00;;;23.50;36.50;;;;;;5074379;28;20020;-54
2021/04/23 06:37:04;;;;;;;1.77;1.00;;;23.50;36.50;;;;;;5085243;28;20083;-54
2021/04/23 06:39:30;;;;;;;2.50;1.10;;;23.40;36.50;;;;;;5081437;28;20524;-55
2021/04/23 06:41:56;;;;;;;1.75;1.00;;;23.50;36.50;;;;;;5084614;28;20036;-57
2021/04/23 06:44:21;;;;;;;1.95;1.10;;;23.50;36.50;;;;;;5080517;28;20541;-56
2021/04/23 06:46:47;;;;;;;2.13;1.02;;;23.50;36.50;;;;;;5080876;28;20020;-50
2021/04/23 06:49:13;;;;;;;3.60;1.40;;;23.50;36.40;;;;;;5083320;28;20020;-54
2021/04/23 06:51:39;;;;;;;2.55;1.20;;;23.50;36.40;;;;;;5085321;28;20564;-56
2021/04/23 06:54:06;;;;;;;2.80;1.10;;;23.40;36.40;;;;;;5080970;28;20674;-53
2021/04/23 06:56:32;;;;;;;1.85;1.00;;;23.50;36.40;;;;;;5082051;28;20395;-54
2021/04/23 06:58:58;;;;;;;2.63;1.20;;;23.40;36.30;;;;;;5079488;28;20036;-54
2021/04/23 07:01:24;;;;;;;3.08;1.20;;;23.50;36.40;;;;;;5079840;28;20149;-56
2021/04/23 07:03:49;;;;;;;2.78;1.15;;;23.40;36.30;;;;;;5077376;28;20055;-58
2021/04/23 07:06:15;;;;;;;1.75;0.93;;;23.40;36.30;;;;;;5083013;28;20372;-52
2021/04/23 07:08:41;;;;;;;2.05;1.02;;;23.50;36.40;;;;;;5079353;28;20028;-54
2021/04/23 07:11:07;;;;;;;1.70;0.90;;;23.50;36.30;;;;;;5079198;28;20037;-59
2021/04/23 07:13:33;;;;;;;2.30;1.20;;;23.50;36.40;;;;;;5070285;28;20024;-60
2021/04/23 07:15:59;;;;;;;1.40;0.90;;;23.40;36.30;;;;;;5076441;28;20471;-58
2021/04/23 07:18:26;;;;;;;2.70;1.00;;;23.50;36.40;;;;;;5077989;28;20032;-59
2021/04/23 07:20:53;;;;;;;2.55;1.13;;;23.40;36.30;;;;;;5078972;28;20054;-57
2021/04/23 07:23:19;;;;;;;3.60;1.35;;;23.40;36.30;;;;;;5077543;28;20113;-57
2021/04/23 07:25:45;;;;;;;2.53;1.00;;;23.40;36.30;;;;;;5084630;28;20055;-54
2021/04/23 07:28:10;;;;;;;2.20;1.10;;;23.40;36.40;;;;;;5085377;28;20111;-58
2021/04/23 07:30:37;;;;;;;2.22;1.00;;;23.40;36.40;;;;;;5082338;28;20131;-53
2021/04/23 07:33:08;;;;;;;1.58;1.00;;;23.40;36.40;;;;;;5081942;28;20067;-57
2021/04/23 07:35:34;;;;;;;1.85;0.95;;;23.40;36.40;;;;;;5081193;28;20024;-60
2021/04/23 07:38:00;;;;;;;1.67;1.00;;;23.40;36.40;;;;;;5081239;28;20605;-54
2021/04/23 07:40:27;;;;;;;2.00;1.08;;;23.40;36.40;;;;;;5083890;28;20119;-54
2021/04/23 07:42:53;;;;;;;3.38;1.08;;;23.40;36.50;;;;;;5081050;28;20714;-57
2021/04/23 07:45:18;;;;;;;2.35;1.08;;;23.40;36.50;;;;;;5083639;28;20030;-59
2021/04/23 07:47:45;;;;;;;2.47;1.17;;;23.40;36.50;;;;;;5084632;28;20638;-58
2021/04/23 07:50:14;;;;;;;2.28;0.95;;;23.40;36.40;;;;;;5079160;28;20038;-58
2021/04/23 07:52:40;;;;;;;3.72;1.08;;;23.40;36.50;;;;;;5084939;28;20036;-56
2021/04/23 07:55:08;;;;;;;3.03;1.10;;;23.40;37.00;;;;;;5084092;28;20047;-55
2021/04/23 07:57:35;;;;;;;2.20;1.00;;;23.40;36.50;;;;;;5084787;28;20036;-58
2021/04/23 08:00:00;;;;;;;2.13;1.00;;;23.40;36.50;;;;;;5082623;28;20028;-57
2021/04/23 08:02:26;;;;;;;2.70;1.08;;;23.40;36.60;;;;;;5081056;28;20726;-59
2021/04/23 08:04:52;;;;;;;1.80;1.00;;;23.40;36.60;;;;;;5082777;28;20032;-54
2021/04/23 08:07:18;;;;;;;1.80;0.95;;;23.40;36.60;;;;;;5082863;28;20024;-54
2021/04/23 08:09:43;;;;;;;2.28;1.00;;;23.40;36.60;;;;;;5083740;28;20032;-58
2021/04/23 08:12:09;;;;;;;3.30;1.00;;;23.40;36.60;;;;;;5084398;28;20043;-57
2021/04/23 08:14:35;;;;;;;2.28;1.15;;;23.40;36.60;;;;;;5083600;28;20043;-57
2021/04/23 08:17:01;;;;;;;3.08;1.00;;;23.40;36.60;;;;;;5085382;28;20554;-60
2021/04/23 08:19:26;;;;;;;2.58;1.10;;;23.40;36.60;;;;;;5083968;28;20035;-58
2021/04/23 08:21:52;;;;;;;2.22;1.00;;;23.40;36.60;;;;;;5084762;28;20035;-58
2021/04/23 08:24:18;;;;;;;3.42;1.00;;;23.40;36.60;;;;;;5082428;28;20533;-59
2021/04/23 08:26:44;;;;;;;3.20;1.17;;;23.40;36.60;;;;;;5081073;28;20613;-56
2021/04/23 08:29:11;;;;;;;1.88;1.00;;;23.40;36.50;;;;;;5084394;28;20138;-58
2021/04/23 08:31:44;;;;;;;2.00;0.98;;;23.40;36.50;;;;;;5084480;28;20054;-58
2021/04/23 08:34:11;;;;;;;2.53;0.95;;;23.40;36.50;;;;;;5084567;28;20050;-55
2021/04/23 08:36:37;;;;;;;2.33;1.20;;;23.40;36.60;;;;;;5079324;28;20347;-61
2021/04/23 08:39:10;;;;;;;3.10;1.10;;;23.40;36.60;;;;;;5071258;28;20016;-59
2021/04/23 08:41:37;;;;;;;1.88;0.93;;;23.40;36.60;;;;;;5081485;28;20024;-58
2021/04/23 08:44:05;;;;;;;1.80;0.98;;;23.40;37.10;;;;;;5080863;28;20043;-56
2021/04/23 08:46:33;;;;;;;2.05;1.08;;;23.40;36.60;;;;;;5084016;28;20039;-59
2021/04/23 08:49:00;;;;;;;2.70;1.23;;;23.40;36.50;;;;;;5083528;28;20082;-60
2021/04/23 08:51:27;;;;;;;2.88;1.00;;;23.40;36.40;;;;;;5085076;28;20027;-57
2021/04/23 08:53:53;;;;;;;4.57;1.05;;;23.40;36.30;;;;;;5081218;28;20032;-58
2021/04/23 08:56:19;;;;;;;2.50;1.08;;;23.40;36.20;;;;;;5081502;28;20051;-58
2021/04/23 08:58:46;;;;;;;2.70;1.10;;;23.40;36.10;;;;;;5083716;28;20482;-54
2021/04/23 09:01:13;;;;;;;2.25;1.05;;;23.40;36.10;;;;;;5081460;28;20044;-54
2021/04/23 09:03:38;;;;;;;2.15;1.00;;;23.40;36.10;;;;;;5082356;28;20451;-58
2021/04/23 09:06:12;;;;;;;2.95;1.00;;;23.40;36.10;;;;;;5084486;28;20115;-58
2021/04/23 09:09:11;;;;;;;2.65;1.13;;;23.40;36.10;;;;;;5079273;28;20115;-58
2021/04/23 09:11:42;;;;;;;2.22;1.17;;;23.40;36.00;;;;;;5081109;28;20470;-57
2021/04/23 09:14:23;;;;;;;2.60;1.20;;;23.40;36.00;;;;;;5072149;28;20434;-58
2021/04/23 09:16:58;;;;;;;1.55;0.95;;;23.40;35.90;;;;;;5082413;28;20082;-59
2021/04/23 09:19:32;;;;;;;2.13;1.00;;;23.40;36.00;;;;;;5071877;28;20228;-58
2021/04/23 09:22:29;;;;;;;1.77;0.88;;;23.40;36.00;;;;;;5083005;28;20071;-58
2021/04/23 09:25:10;;;;;;;3.10;1.10;;;23.40;36.00;;;;;;5077011;28;20043;-56
2021/04/23 09:27:38;;;;;;;3.33;1.00;;;23.40;36.00;;;;;;5082023;28;20027;-55
2021/04/23 09:30:07;;;;;;;2.17;1.20;;;23.40;36.00;;;;;;5081590;28;20730;-58
2021/04/23 09:32:39;;;;;;;2.85;1.30;;;23.40;36.00;;;;;;5082272;28;20032;-58
2021/04/23 09:35:13;;;;;;;3.08;1.02;;;23.40;36.00;;;;;;5081556;28;20215;-60
2021/04/23 09:37:50;;;;;;;2.15;0.90;;;23.40;36.00;;;;;;5077195;28;20439;-59
2021/04/23 09:40:20;;;;;;;2.90;1.20;;;23.40;36.00;;;;;;5078736;28;20093;-59
2021/04/23 09:42:58;;;;;;;2.22;1.13;;;23.40;36.00;;;;;;5080216;28;20215;-58
2021/04/23 09:45:26;;;;;;;3.03;1.20;;;23.40;35.80;;;;;;5079794;28;20226;-55
2021/04/23 09:47:52;;;;;;;3.08;1.30;;;23.40;35.60;;;;;;5079069;28;20498;-57
2021/04/23 09:50:19;;;;;;;2.88;1.48;;;23.40;35.30;;;;;;5080519;28;20038;-58
2021/04/23 09:52:51;;;;;;;3.25;1.30;;;23.40;35.20;;;;;;5081552;28;20101;-57
2021/04/23 09:55:20;;;;;;;2.03;1.00;;;23.40;35.40;;;;;;5083770;28;20028;-55
2021/04/23 09:57:56;;;;;;;2.47;1.17;;;23.40;35.60;;;;;;5104084;28;20101;-59
2021/04/23 10:00:25;;;;;;;4.65;1.25;;;23.40;35.70;;;;;;5080909;28;20047;-57
2021/04/23 10:02:58;;;;;;;2.63;1.13;;;23.40;35.70;;;;;;5078619;28;20035;-53
2021/04/23 10:05:28;;;;;;;2.15;1.10;;;23.40;35.70;;;;;;5069990;28;20079;-54
2021/04/23 10:07:53;;;;;;;2.50;1.35;;;23.40;35.70;;;;;;5078253;28;20107;-57
2021/04/23 10:10:19;;;;;;;2.83;1.50;;;23.40;35.70;;;;;;5077659;28;20169;-57
2021/04/23 10:12:49;;;;;;;1.98;1.00;;;23.40;35.70;;;;;;5077844;28;20455;-56
2021/04/23 10:15:22;;;;;;;3.13;1.40;;;23.40;35.50;;;;;;5078087;28;20476;-55
2021/04/23 10:17:51;;;;;;;3.17;1.50;;;23.40;33.30;;;;;;5082162;28;20020;-55
2021/04/23 10:20:24;;;;;;;5.22;1.67;;;23.40;32.90;;;;;;5083515;28;20131;-55
2021/04/23 10:22:50;;;;;;;4.03;1.63;;;23.40;32.50;;;;;;5075727;28;20430;-62
2021/04/23 10:25:17;;;;;;;5.63;1.60;;;23.40;31.50;;;;;;5077045;28;20149;-57
2021/04/23 10:27:45;;;;;;;3.35;1.40;;;23.40;31.30;;;;;;5081313;28;20065;-54
2021/04/23 10:30:23;;;;;;;3.78;1.52;;;23.40;31.50;;;;;;5081782;28;20016;-57
2021/04/23 10:32:50;;;;;;;5.15;1.60;;;23.50;31.70;;;;;;5081917;28;20032;-57
2021/04/23 10:35:16;;;;;;;3.80;1.50;;;23.50;32.00;;;;;;5074669;28;20063;-58
2021/04/23 10:37:44;;;;;;;4.45;1.45;;;23.50;32.20;;;;;;5082710;28;20458;-56
2021/04/23 10:40:12;;;;;;;6.03;1.60;;;23.60;32.50;;;;;;5072752;28;20531;-57
2021/04/23 10:42:40;;;;;;;5.80;1.88;;;23.60;32.60;;;;;;5079373;28;20070;-59
2021/04/23 10:45:50;;;;;;;3.00;1.40;;;23.60;32.90;;;;;;5080280;28;20109;-57
2021/04/23 10:48:15;;;;;;;6.60;2.03;;;23.60;32.90;;;;;;5069593;28;20020;-59
2021/04/23 10:50:42;;;;;;;4.70;1.65;;;23.60;32.80;;;;;;5080304;28;20481;-56
2021/04/23 10:53:10;;;;;;;5.57;1.70;;;23.70;33.10;;;;;;5073318;28;20531;-54
2021/04/23 10:55:37;;;;;;;8.00;1.65;;;23.70;33.20;;;;;;5070108;28;20036;-59
2021/04/23 10:58:03;;;;;;;6.20;1.50;;;23.70;33.30;;;;;;5075076;28;20024;-55
2021/04/23 11:00:31;;;;;;;3.95;1.45;;;23.70;33.40;;;;;;5081303;28;20157;-56
2021/04/23 11:03:32;;;;;;;4.68;1.42;;;23.80;33.50;;;;;;5077591;28;20032;-55
2021/04/23 11:06:06;;;;;;;4.25;1.60;;;23.80;33.60;;;;;;5081973;28;20557;-55
2021/04/23 11:08:37;;;;;;;7.38;1.60;;;23.80;33.70;;;;;;5077006;28;20058;-55
2021/04/23 11:11:03;;;;;;;6.47;1.73;;;23.90;33.80;;;;;;5071058;28;20561;-56
2021/04/23 11:13:33;;;;;;;6.28;1.50;;;23.90;33.90;;;;;;5079361;28;20099;-54
2021/04/23 11:16:17;;;;;;;3.55;1.35;;;23.90;33.90;;;;;;5081332;28;20395;-55
2021/04/23 11:18:54;;;;;;;7.95;1.70;;;24.00;34.10;;;;;;5079552;28;20028;-53
2021/04/23 11:21:33;;;;;;;7.63;1.80;;;24.00;34.20;;;;;;5081979;28;20028;-54
2021/04/23 11:24:10;;;;;;;4.88;1.50;;;24.00;34.30;;;;;;5078690;28;20016;-58
2021/04/23 11:29:22;;;;;;;6.68;1.80;;;24.00;34.40;;;;;;5078051;28;20111;-59
2021/04/23 11:32:23;;;;;;;7.25;1.85;;;24.10;34.50;;;;;;5080431;28;20036;-56
2021/04/23 11:34:51;;;;;;;5.40;1.77;;;24.10;34.50;;;;;;5070247;28;20064;-52
2021/04/23 11:37:20;;;;;;;5.63;1.63;;;24.10;34.50;;;;;;5078342;28;20475;-59
2021/04/23 11:39:50;;;;;;;7.10;1.70;;;24.10;34.50;;;;;;5079400;28;20039;-56
2021/04/23 11:42:20;;;;;;;;;;;24.10;34.50;;;;;;5075986;28;20051;-59
2021/04/23 11:44:46;;;;;;;6.93;1.60;;;24.20;34.60;;;;;;5078590;28;19920;-52
2021/04/23 11:47:14;;;;;;;7.70;1.40;;;24.20;34.70;;;;;;5079010;28;20103;-56
2021/04/23 11:49:40;;;;;;;6.97;1.40;;;24.20;34.70;;;;;;5079986;28;20505;-54
2021/04/23 11:52:06;;;;;;;6.05;1.60;;;24.30;34.80;;;;;;5080137;28;20036;-56
2021/04/23 11:54:38;;;;;;;5.97;1.60;;;24.30;34.90;;;;;;5077213;28;20035;-57
2021/04/23 11:57:07;;;;;;;10.77;1.77;;;24.30;34.90;;;;;;5080300;28;20092;-53
2021/04/23 11:59:33;;;;;;;6.10;1.40;;;24.30;34.90;;;;;;5074473;28;20426;-56
2021/04/23 12:01:59;;;;;;;5.60;1.50;;;24.30;35.00;;;;;;5076012;28;20054;-52
2021/04/23 12:04:45;;;;;;;7.35;1.45;;;24.30;35.10;;;;;;5075963;28;20028;-57
2021/04/23 12:07:11;;;;;;;10.82;1.65;;;24.30;35.00;;;;;;5078241;28;20044;-58
2021/04/23 12:09:37;;;;;;;8.77;1.70;;;24.30;35.10;;;;;;5078079;28;20024;-57
2021/04/23 12:12:09;;;;;;;5.53;1.70;;;24.30;35.10;;;;;;5080362;28;20028;-56
2021/04/23 12:14:48;;;;;;;4.78;1.55;;;24.30;35.10;;;;;;5073583;28;20103;-55
2021/04/23 12:17:14;;;;;;;6.50;1.67;;;24.40;35.30;;;;;;5080405;28;20020;-57
2021/04/23 12:19:41;;;;;;;5.65;1.63;;;24.40;35.30;;;;;;5074095;28;20032;-59
2021/04/23 12:22:07;;;;;;;7.05;1.70;;;24.40;34.50;;;;;;5076363;28;20032;-53
2021/04/23 12:24:33;;;;;;;4.90;1.73;;;24.30;33.40;;;;;;5077958;28;20031;-55
2021/04/23 12:26:59;;;;;;;5.32;1.58;;;24.30;32.60;;;;;;5078755;28;20279;-52
2021/04/23 12:29:25;;;;;;;6.10;1.77;;;24.30;32.30;;;;;;5083098;28;20034;-51
2021/04/23 12:31:52;;;;;;;4.25;1.52;;;24.30;32.00;;;;;;5076231;28;20050;-56
2021/04/23 12:34:17;;;;;;;8.50;2.38;;;24.30;31.80;;;;;;5075645;28;20060;-50
2021/04/23 12:36:48;;;;;;;3.95;1.85;;;24.30;31.30;;;;;;5076739;28;20123;-51
2021/04/23 12:39:23;;;;;;;5.53;1.63;;;24.20;30.80;;;;;;5078273;28;20546;-48
2021/04/23 12:41:53;;;;;;;4.53;1.52;;;24.20;31.10;;;;;;5078104;28;20036;-56
2021/04/23 12:44:22;;;;;;;2.50;1.10;;;24.20;31.50;;;;;;5071704;28;20105;-50
2021/04/23 12:46:50;;;;;;;3.90;1.30;;;24.20;31.70;;;;;;5079445;28;20039;-56
2021/04/23 12:49:24;;;;;;;4.37;1.20;;;24.20;31.80;;;;;;5074379;28;20689;-54
2021/04/23 12:52:08;;;;;;;5.00;1.27;;;24.30;31.90;;;;;;5068579;28;20020;-57
2021/04/23 12:54:43;;;;;;;3.08;1.20;;;24.30;32.20;;;;;;5077161;28;20486;-54
2021/04/23 12:57:16;;;;;;;4.90;1.48;;;24.30;32.50;;;;;;5081574;28;20147;-53